• Join FlightAware (Why Join?)
  • Login
  • US Flag GB Flag 
21:32 EDT


 

Airport Tracker/Info


-or-


 

Live Flight TrackerFlight Track Log ✈ N1926A ✈ 28-Apr-2013 ✈ KECP - 41A

Flight Track Log - Related Links

Times and Time Zones

All times are in EDT time to prevent confusion due to time zone crossing. See the N1926A flight status page for this flight to view local times or setup timezone preferences in your user account.

Time Position Orientation Groundspeed Altitude Reporting Facility
EDT Latitude Longitude Course Direction KTS MPH feet Rate Location/Type
19:13 30.3783 -85.7556 358° North 129 148 2,300  Level Jacksonville Center
19:14 30.4411 -85.7572 359° North 134 154 3,500 1,200 Climbing Jacksonville Center
19:15 30.9085 -85.8158 358° North  Level Estimated
19:15 30.5078 -85.7642 355° North 183 211 4,700  Level Jacksonville Center
19:16 30.5744 -85.7661 359° North 214 246 5,900 1,200 Climbing Jacksonville Center
19:17 30.6392 -85.7706 357° North 232 267 7,200 1,200 Climbing Jacksonville Center
19:18 30.7078 -85.7750 357° North 237 273 8,400 1,200 Climbing Jacksonville Center
19:19 30.7747 -85.7747 360° North 237 273 9,700 1,200 Climbing Jacksonville Center
19:20 30.8408 -85.7961 344° North 237 273 10,900 1,260 Climbing Jacksonville Center
19:21 30.9053 -85.8197 343° North 237 273 12,300 1,020 Climbing Jacksonville Center
19:22 30.9714 -85.8411 344° North 242 278 13,000 300 Climbing Jacksonville Center
19:23 31.0461 -85.8628 346° North 247 284 13,000  Level Jacksonville Center
19:24 31.1125 -85.8772 349° North 259 298 13,000  Level Jacksonville Center
19:25 31.1747 -85.8961 345° North 251 289 13,000  Level Jacksonville Center
19:26 31.2372 -85.9078 351° North 233 268 13,100  Climbing Jacksonville Center
19:27 31.3083 -85.9028 North 233 268 13,000 -60 Descending Jacksonville Center
19:28 31.3722 -85.9317 339° North 233 268 13,000  Level Jacksonville Center
19:29 31.4319 -85.9700 331° Northwest 238 274 13,100  Climbing Jacksonville Center
19:30 31.4942 -85.9844 349° North 238 274 13,100  Level Jacksonville Center
19:32 31.6375 -85.9731 North 241 277 13,100  Level Atlanta Center
19:33 31.7169 -85.9625 North 273 314 13,100 -120 Level Atlanta Center
19:34 31.7944 -85.9544 North 280 322 12,900 -360 Descending Atlanta Center
19:35 31.8781 -85.9442 North 285 328 12,400 -540 Descending Atlanta Center
19:36 31.9575 -85.9358 North 285 328 11,900 -660 Descending Atlanta Center
19:37 32.0389 -85.9303 North 290 334 11,200 -1,320 Descending Atlanta Center
19:38 32.1225 -85.9247 North 290 334 9,300 -1,800 Descending Atlanta Center
19:39 32.1956 -85.9189 North 277 319 7,700 -1,740 Descending Atlanta Center
19:40 32.2625 -85.9081 North 257 296 5,900 -1,800 Descending Atlanta Center